• Join FlightAware (Why Join?)
  • Login
  • US Flag 
05:17AM EDT


 

Airport Tracker/Info


-or-


 

Live Flight TrackerFlight Track Log ✈ CTL311 ✈ 01-Sep-2013 ✈ KOSU - KJXN

Flight Track Log - Related Links

Times and Time Zones

All times are in EDT time to prevent confusion due to time zone crossing. See the CTL311 flight status page for this flight to view local times or setup timezone preferences in your user account.

Time Position Orientation Groundspeed Altitude Reporting Facility
EDT Latitude Longitude Course Direction KTS MPH feet Rate Location/Type
02:27AM 40.1264 -83.0831 335° Northwest 141 162 2,300  Level Indianapolis Center
02:27AM 40.1581 -83.1019 335° Northwest 149 171 2,900 660 Climbing Indianapolis Center
02:28AM 40.1939 -83.1242 335° Northwest 149 171 3,500 540 Climbing Indianapolis Center
02:30AM 40.2361 -83.1447 340° North 158 182 4,100 540 Climbing Indianapolis Center
02:31AM 40.2758 -83.1678 336° Northwest 159 183 4,700 600 Climbing Indianapolis Center
02:32AM 40.3178 -83.1911 337° Northwest 161 185 5,400 600 Climbing Indianapolis Center
02:33AM 40.3594 -83.2144 337° Northwest 160 184 6,000 300 Climbing Indianapolis Center
02:34AM 40.3994 -83.2375 336° Northwest 163 188 6,100  Climbing Indianapolis Center
02:35AM 40.4569 -83.2686 338° Northwest 170 196 6,000 -120 Descending Indianapolis Center
02:36AM 40.4953 -83.2803 347° North 174 200 5,900 -60 Descending Indianapolis Center
02:37AM 40.5486 -83.3039 341° North 176 203 5,900 60 Level Indianapolis Center
02:38AM 40.5894 -83.3300 334° Northwest 168 193 6,100 60 Climbing Indianapolis Center
02:39AM 40.6286 -83.3572 332° Northwest 162 186 6,100 -60 Level Indianapolis Center
02:40AM 40.6731 -83.3797 339° North 167 192 6,000 -120 Descending Indianapolis Center
02:41AM 40.7186 -83.4025 339° North 173 199 5,900  Descending Indianapolis Center
02:42AM 40.7603 -83.4269 336° Northwest 168 193 6,100  Climbing Indianapolis Center
02:43AM 40.7961 -83.4578 327° Northwest 161 185 6,000 -120 Descending Indianapolis Center
02:44AM 40.8369 -83.4889 330° Northwest 165 190 5,900 -60 Descending Indianapolis Center
02:45AM 40.8739 -83.5250 324° Northwest 162 186 5,900  Level Indianapolis Center
02:46AM 40.9172 -83.5444 341° North 164 189 6,000 60 Climbing Indianapolis Center
02:47AM 40.9725 -83.5617 347° North 161 185 6,100 -60 Climbing Cleveland Center
02:48AM 41.0178 -83.5856 338° Northwest 161 185 5,900 -240 Descending Cleveland Center